sensor_id;sensor_type;location;lat;lon;timestamp;P1;durP1;ratioP1;P2;durP2;ratioP2
46875;SDS011;32866;50.160;14.768;2023-09-12T00:02:17;2.88;;;2.42;;
46875;SDS011;32866;50.160;14.768;2023-09-12T00:04:43;2.75;;;2.55;;
46875;SDS011;32866;50.160;14.768;2023-09-12T00:09:34;2.67;;;2.47;;
46875;SDS011;32866;50.160;14.768;2023-09-12T00:14:26;2.22;;;2.13;;
46875;SDS011;32866;50.160;14.768;2023-09-12T00:19:20;6.35;;;3.08;;
46875;SDS011;32866;50.160;14.768;2023-09-12T00:24:12;2.63;;;2.53;;
46875;SDS011;32866;50.160;14.768;2023-09-12T00:29:04;2.38;;;2.28;;
46875;SDS011;32866;50.160;14.768;2023-09-12T00:33:56;3.17;;;2.95;;
46875;SDS011;32866;50.160;14.768;2023-09-12T00:38:47;3.72;;;2.40;;
46875;SDS011;32866;50.160;14.768;2023-09-12T00:43:39;2.75;;;2.55;;
46875;SDS011;32866;50.160;14.768;2023-09-12T00:48:31;2.53;;;2.33;;
46875;SDS011;32866;50.160;14.768;2023-09-12T00:50:58;2.17;;;2.08;;
46875;SDS011;32866;50.160;14.768;2023-09-12T00:53:25;4.47;;;3.10;;
46875;SDS011;32866;50.160;14.768;2023-09-12T00:58:19;2.05;;;1.95;;
46875;SDS011;32866;50.160;14.768;2023-09-12T01:00:45;1.95;;;1.85;;
46875;SDS011;32866;50.160;14.768;2023-09-12T01:03:12;2.58;;;2.38;;
46875;SDS011;32866;50.160;14.768;2023-09-12T01:05:38;2.67;;;2.47;;
46875;SDS011;32866;50.160;14.768;2023-09-12T01:08:04;2.60;;;2.42;;
46875;SDS011;32866;50.160;14.768;2023-09-12T01:10:31;2.80;;;2.25;;
46875;SDS011;32866;50.160;14.768;2023-09-12T01:12:57;3.05;;;2.78;;
46875;SDS011;32866;50.160;14.768;2023-09-12T01:17:48;2.40;;;2.22;;
46875;SDS011;32866;50.160;14.768;2023-09-12T01:20:16;2.33;;;2.08;;
46875;SDS011;32866;50.160;14.768;2023-09-12T01:23:15;2.78;;;2.65;;
46875;SDS011;32866;50.160;14.768;2023-09-12T01:28:13;3.28;;;3.08;;
46875;SDS011;32866;50.160;14.768;2023-09-12T01:30:42;3.13;;;2.83;;
46875;SDS011;32866;50.160;14.768;2023-09-12T01:33:11;3.13;;;2.92;;
46875;SDS011;32866;50.160;14.768;2023-09-12T01:35:38;2.67;;;2.53;;
46875;SDS011;32866;50.160;14.768;2023-09-12T01:38:04;2.97;;;2.78;;
46875;SDS011;32866;50.160;14.768;2023-09-12T01:43:09;3.15;;;2.67;;
46875;SDS011;32866;50.160;14.768;2023-09-12T01:45:37;2.38;;;2.17;;
46875;SDS011;32866;50.160;14.768;2023-09-12T01:50:31;2.85;;;2.65;;
46875;SDS011;32866;50.160;14.768;2023-09-12T01:52:58;2.55;;;2.45;;
46875;SDS011;32866;50.160;14.768;2023-09-12T01:55:25;2.60;;;2.40;;
46875;SDS011;32866;50.160;14.768;2023-09-12T01:57:52;3.15;;;2.95;;
46875;SDS011;32866;50.160;14.768;2023-09-12T02:00:18;3.25;;;3.03;;
46875;SDS011;32866;50.160;14.768;2023-09-12T02:02:47;3.33;;;2.55;;
46875;SDS011;32866;50.160;14.768;2023-09-12T02:05:14;2.70;;;2.53;;
46875;SDS011;32866;50.160;14.768;2023-09-12T02:07:45;3.47;;;3.17;;
46875;SDS011;32866;50.160;14.768;2023-09-12T02:10:12;3.22;;;2.92;;
46875;SDS011;32866;50.160;14.768;2023-09-12T02:12:39;3.83;;;2.55;;
46875;SDS011;32866;50.160;14.768;2023-09-12T02:15:05;2.92;;;2.70;;
46875;SDS011;32866;50.160;14.768;2023-09-12T02:17:31;3.67;;;2.90;;
46875;SDS011;32866;50.160;14.768;2023-09-12T02:19:57;2.08;;;1.98;;
46875;SDS011;32866;50.160;14.768;2023-09-12T02:22:23;3.25;;;2.95;;
46875;SDS011;32866;50.160;14.768;2023-09-12T02:27:15;3.05;;;2.85;;
46875;SDS011;32866;50.160;14.768;2023-09-12T02:29:42;3.15;;;2.15;;
46875;SDS011;32866;50.160;14.768;2023-09-12T02:32:08;3.92;;;2.95;;
46875;SDS011;32866;50.160;14.768;2023-09-12T02:34:35;3.05;;;2.55;;
46875;SDS011;32866;50.160;14.768;2023-09-12T02:37:01;3.10;;;2.90;;
46875;SDS011;32866;50.160;14.768;2023-09-12T02:41:52;3.55;;;3.17;;
46875;SDS011;32866;50.160;14.768;2023-09-12T02:46:44;3.22;;;3.03;;
46875;SDS011;32866;50.160;14.768;2023-09-12T02:51:39;4.93;;;3.00;;
46875;SDS011;32866;50.160;14.768;2023-09-12T02:54:05;2.88;;;2.67;;
46875;SDS011;32866;50.160;14.768;2023-09-12T02:56:31;3.78;;;3.45;;
46875;SDS011;32866;50.160;14.768;2023-09-12T02:58:57;2.80;;;2.65;;
46875;SDS011;32866;50.160;14.768;2023-09-12T03:01:23;3.25;;;3.05;;
46875;SDS011;32866;50.160;14.768;2023-09-12T03:03:53;3.05;;;2.85;;
46875;SDS011;32866;50.160;14.768;2023-09-12T03:06:20;2.90;;;2.72;;
46875;SDS011;32866;50.160;14.768;2023-09-12T03:08:46;3.20;;;2.85;;
46875;SDS011;32866;50.160;14.768;2023-09-12T03:11:13;3.00;;;2.80;;
46875;SDS011;32866;50.160;14.768;2023-09-12T03:16:09;3.90;;;3.60;;
46875;SDS011;32866;50.160;14.768;2023-09-12T03:18:35;2.25;;;2.15;;
46875;SDS011;32866;50.160;14.768;2023-09-12T03:21:02;3.47;;;3.13;;
46875;SDS011;32866;50.160;14.768;2023-09-12T03:23:28;3.05;;;2.67;;
46875;SDS011;32866;50.160;14.768;2023-09-12T03:28:20;2.65;;;2.55;;
46875;SDS011;32866;50.160;14.768;2023-09-12T03:33:11;3.17;;;2.97;;
46875;SDS011;32866;50.160;14.768;2023-09-12T03:38:03;3.85;;;3.55;;
46875;SDS011;32866;50.160;14.768;2023-09-12T03:42:58;2.25;;;2.15;;
46875;SDS011;32866;50.160;14.768;2023-09-12T03:45:24;3.05;;;2.90;;
46875;SDS011;32866;50.160;14.768;2023-09-12T03:50:16;2.28;;;2.17;;
46875;SDS011;32866;50.160;14.768;2023-09-12T03:52:42;3.33;;;3.20;;
46875;SDS011;32866;50.160;14.768;2023-09-12T03:57:34;3.90;;;3.53;;
46875;SDS011;32866;50.160;14.768;2023-09-12T04:00:00;3.33;;;3.13;;
46875;SDS011;32866;50.160;14.768;2023-09-12T04:02:29;4.68;;;4.38;;
46875;SDS011;32866;50.160;14.768;2023-09-12T04:07:24;4.53;;;3.33;;
46875;SDS011;32866;50.160;14.768;2023-09-12T04:09:50;3.17;;;3.08;;
46875;SDS011;32866;50.160;14.768;2023-09-12T04:12:17;2.67;;;2.58;;
46875;SDS011;32866;50.160;14.768;2023-09-12T04:14:43;2.67;;;2.58;;
46875;SDS011;32866;50.160;14.768;2023-09-12T04:19:34;2.97;;;2.83;;
46875;SDS011;32866;50.160;14.768;2023-09-12T04:24:26;4.68;;;3.53;;
46875;SDS011;32866;50.160;14.768;2023-09-12T04:29:19;3.72;;;3.42;;
46875;SDS011;32866;50.160;14.768;2023-09-12T04:34:11;3.92;;;3.05;;
46875;SDS011;32866;50.160;14.768;2023-09-12T04:39:03;3.83;;;3.63;;
46875;SDS011;32866;50.160;14.768;2023-09-12T04:41:30;4.60;;;4.35;;
46875;SDS011;32866;50.160;14.768;2023-09-12T04:43:56;3.75;;;3.55;;
46875;SDS011;32866;50.160;14.768;2023-09-12T04:46:24;4.40;;;4.20;;
46875;SDS011;32866;50.160;14.768;2023-09-12T04:48:50;4.95;;;4.55;;
46875;SDS011;32866;50.160;14.768;2023-09-12T04:53:42;4.47;;;4.22;;
46875;SDS011;32866;50.160;14.768;2023-09-12T04:58:35;3.78;;;3.58;;
46875;SDS011;32866;50.160;14.768;2023-09-12T05:03:28;4.25;;;4.05;;
46875;SDS011;32866;50.160;14.768;2023-09-12T05:08:19;4.07;;;3.88;;
46875;SDS011;32866;50.160;14.768;2023-09-12T05:13:11;5.07;;;4.68;;
46875;SDS011;32866;50.160;14.768;2023-09-12T05:15:37;4.78;;;4.47;;
46875;SDS011;32866;50.160;14.768;2023-09-12T05:18:05;3.95;;;3.75;;
46875;SDS011;32866;50.160;14.768;2023-09-12T05:20:32;5.47;;;4.57;;
46875;SDS011;32866;50.160;14.768;2023-09-12T05:22:58;4.78;;;4.38;;
46875;SDS011;32866;50.160;14.768;2023-09-12T05:25:25;4.35;;;4.15;;
46875;SDS011;32866;50.160;14.768;2023-09-12T05:27:52;4.35;;;4.13;;
46875;SDS011;32866;50.160;14.768;2023-09-12T05:30:18;5.75;;;5.40;;
46875;SDS011;32866;50.160;14.768;2023-09-12T05:32:44;4.53;;;4.22;;
46875;SDS011;32866;50.160;14.768;2023-09-12T05:37:36;3.00;;;2.90;;
46875;SDS011;32866;50.160;14.768;2023-09-12T05:42:29;4.15;;;3.85;;
46875;SDS011;32866;50.160;14.768;2023-09-12T05:47:20;3.85;;;3.25;;
46875;SDS011;32866;50.160;14.768;2023-09-12T05:49:46;6.72;;;3.20;;
46875;SDS011;32866;50.160;14.768;2023-09-12T05:52:13;3.80;;;3.53;;
46875;SDS011;32866;50.160;14.768;2023-09-12T05:54:39;3.75;;;3.55;;
46875;SDS011;32866;50.160;14.768;2023-09-12T05:57:06;3.88;;;3.47;;
46875;SDS011;32866;50.160;14.768;2023-09-12T05:59:37;3.30;;;3.08;;
46875;SDS011;32866;50.160;14.768;2023-09-12T06:02:04;3.10;;;2.78;;
46875;SDS011;32866;50.160;14.768;2023-09-12T06:04:31;5.38;;;3.95;;
46875;SDS011;32866;50.160;14.768;2023-09-12T06:06:58;4.63;;;4.20;;
46875;SDS011;32866;50.160;14.768;2023-09-12T06:09:25;3.22;;;3.03;;
46875;SDS011;32866;50.160;14.768;2023-09-12T06:14:16;3.78;;;3.47;;
46875;SDS011;32866;50.160;14.768;2023-09-12T06:19:08;3.75;;;3.55;;
46875;SDS011;32866;50.160;14.768;2023-09-12T06:24:10;4.18;;;3.65;;
46875;SDS011;32866;50.160;14.768;2023-09-12T06:26:37;4.32;;;3.90;;
46875;SDS011;32866;50.160;14.768;2023-09-12T06:29:04;3.00;;;2.80;;
46875;SDS011;32866;50.160;14.768;2023-09-12T06:31:31;4.45;;;4.18;;
46875;SDS011;32866;50.160;14.768;2023-09-12T06:33:57;4.93;;;4.45;;
46875;SDS011;32866;50.160;14.768;2023-09-12T06:38:50;3.72;;;3.53;;
46875;SDS011;32866;50.160;14.768;2023-09-12T06:41:19;4.95;;;4.55;;
46875;SDS011;32866;50.160;14.768;2023-09-12T06:43:45;5.82;;;4.15;;
46875;SDS011;32866;50.160;14.768;2023-09-12T06:46:12;3.63;;;3.33;;
46875;SDS011;32866;50.160;14.768;2023-09-12T06:48:38;3.72;;;3.53;;
46875;SDS011;32866;50.160;14.768;2023-09-12T06:51:08;3.58;;;3.35;;
46875;SDS011;32866;50.160;14.768;2023-09-12T06:53:34;3.47;;;3.28;;
46875;SDS011;32866;50.160;14.768;2023-09-12T06:56:03;4.15;;;3.85;;
46875;SDS011;32866;50.160;14.768;2023-09-12T06:58:30;4.30;;;2.70;;
46875;SDS011;32866;50.160;14.768;2023-09-12T07:00:56;6.32;;;3.13;;
46875;SDS011;32866;50.160;14.768;2023-09-12T07:03:26;3.88;;;3.53;;
46875;SDS011;32866;50.160;14.768;2023-09-12T07:05:52;4.40;;;4.00;;
46875;SDS011;32866;50.160;14.768;2023-09-12T07:08:18;7.65;;;5.10;;
46875;SDS011;32866;50.160;14.768;2023-09-12T07:10:44;4.40;;;4.00;;
46875;SDS011;32866;50.160;14.768;2023-09-12T07:13:11;4.40;;;4.00;;
46875;SDS011;32866;50.160;14.768;2023-09-12T07:15:37;8.38;;;4.75;;
46875;SDS011;32866;50.160;14.768;2023-09-12T07:18:04;2.78;;;2.58;;
46875;SDS011;32866;50.160;14.768;2023-09-12T07:20:32;4.20;;;3.80;;
46875;SDS011;32866;50.160;14.768;2023-09-12T07:22:59;4.85;;;4.45;;
46875;SDS011;32866;50.160;14.768;2023-09-12T07:25:25;3.30;;;3.05;;
46875;SDS011;32866;50.160;14.768;2023-09-12T07:27:51;3.58;;;3.28;;
46875;SDS011;32866;50.160;14.768;2023-09-12T07:30:18;9.85;;;3.30;;
46875;SDS011;32866;50.160;14.768;2023-09-12T07:32:44;3.55;;;3.28;;
46875;SDS011;32866;50.160;14.768;2023-09-12T07:35:10;3.35;;;3.05;;
46875;SDS011;32866;50.160;14.768;2023-09-12T07:37:36;6.50;;;4.80;;
46875;SDS011;32866;50.160;14.768;2023-09-12T07:40:02;2.80;;;2.60;;
46875;SDS011;32866;50.160;14.768;2023-09-12T07:42:35;2.75;;;2.47;;
46875;SDS011;32866;50.160;14.768;2023-09-12T07:45:02;3.10;;;2.83;;
46875;SDS011;32866;50.160;14.768;2023-09-12T07:47:32;3.03;;;2.75;;
46875;SDS011;32866;50.160;14.768;2023-09-12T07:49:58;4.22;;;3.15;;
46875;SDS011;32866;50.160;14.768;2023-09-12T07:52:26;4.65;;;2.72;;
46875;SDS011;32866;50.160;14.768;2023-09-12T07:54:52;5.50;;;2.40;;
46875;SDS011;32866;50.160;14.768;2023-09-12T07:57:23;2.17;;;2.03;;
46875;SDS011;32866;50.160;14.768;2023-09-12T07:59:49;3.25;;;2.95;;
46875;SDS011;32866;50.160;14.768;2023-09-12T08:02:15;2.55;;;2.35;;
46875;SDS011;32866;50.160;14.768;2023-09-12T08:04:41;4.97;;;2.58;;
46875;SDS011;32866;50.160;14.768;2023-09-12T08:07:07;2.13;;;2.03;;
46875;SDS011;32866;50.160;14.768;2023-09-12T08:09:49;3.33;;;3.03;;
46875;SDS011;32866;50.160;14.768;2023-09-12T08:12:17;1.95;;;1.85;;
46875;SDS011;32866;50.160;14.768;2023-09-12T08:14:44;3.55;;;3.15;;
46875;SDS011;32866;50.160;14.768;2023-09-12T08:17:11;2.75;;;2.53;;
46875;SDS011;32866;50.160;14.768;2023-09-12T08:19:37;2.40;;;2.20;;
46875;SDS011;32866;50.160;14.768;2023-09-12T08:22:04;3.30;;;2.17;;
46875;SDS011;32866;50.160;14.768;2023-09-12T08:24:31;2.10;;;1.95;;
46875;SDS011;32866;50.160;14.768;2023-09-12T08:26:57;3.50;;;3.20;;
46875;SDS011;32866;50.160;14.768;2023-09-12T08:29:23;2.55;;;2.35;;
46875;SDS011;32866;50.160;14.768;2023-09-12T08:31:50;2.47;;;2.28;;
46875;SDS011;32866;50.160;14.768;2023-09-12T08:34:16;2.72;;;2.50;;
46875;SDS011;32866;50.160;14.768;2023-09-12T08:36:42;2.85;;;2.60;;
46875;SDS011;32866;50.160;14.768;2023-09-12T08:41:44;3.72;;;3.00;;
46875;SDS011;32866;50.160;14.768;2023-09-12T08:44:12;2.70;;;2.40;;
46875;SDS011;32866;50.160;14.768;2023-09-12T08:46:40;3.40;;;2.85;;
46875;SDS011;32866;50.160;14.768;2023-09-12T08:49:08;2.58;;;2.35;;
46875;SDS011;32866;50.160;14.768;2023-09-12T08:51:41;4.32;;;2.85;;
46875;SDS011;32866;50.160;14.768;2023-09-12T08:54:07;6.93;;;3.25;;
46875;SDS011;32866;50.160;14.768;2023-09-12T08:56:35;3.20;;;2.90;;
46875;SDS011;32866;50.160;14.768;2023-09-12T08:59:03;2.25;;;1.67;;
46875;SDS011;32866;50.160;14.768;2023-09-12T09:01:30;2.60;;;2.42;;
46875;SDS011;32866;50.160;14.768;2023-09-12T09:03:56;3.53;;;3.22;;
46875;SDS011;32866;50.160;14.768;2023-09-12T09:06:23;3.28;;;3.08;;
46875;SDS011;32866;50.160;14.768;2023-09-12T09:08:49;3.13;;;2.92;;
46875;SDS011;32866;50.160;14.768;2023-09-12T09:11:16;3.28;;;3.00;;
46875;SDS011;32866;50.160;14.768;2023-09-12T09:13:43;3.33;;;3.03;;
46875;SDS011;32866;50.160;14.768;2023-09-12T09:21:19;2.78;;;2.58;;
46875;SDS011;32866;50.160;14.768;2023-09-12T09:23:50;2.55;;;2.35;;
46875;SDS011;32866;50.160;14.768;2023-09-12T09:26:16;2.28;;;2.10;;
46875;SDS011;32866;50.160;14.768;2023-09-12T09:28:42;4.47;;;3.03;;
46875;SDS011;32866;50.160;14.768;2023-09-12T09:31:12;3.25;;;2.97;;
46875;SDS011;32866;50.160;14.768;2023-09-12T09:33:39;3.53;;;2.63;;
46875;SDS011;32866;50.160;14.768;2023-09-12T09:36:06;2.25;;;2.13;;
46875;SDS011;32866;50.160;14.768;2023-09-12T09:38:36;1.80;;;1.67;;
46875;SDS011;32866;50.160;14.768;2023-09-12T09:41:08;2.55;;;2.22;;
46875;SDS011;32866;50.160;14.768;2023-09-12T09:43:34;1.40;;;1.30;;
46875;SDS011;32866;50.160;14.768;2023-09-12T09:46:00;2.78;;;2.33;;
46875;SDS011;32866;50.160;14.768;2023-09-12T09:48:28;2.13;;;2.03;;
46875;SDS011;32866;50.160;14.768;2023-09-12T09:51:00;2.55;;;1.92;;
46875;SDS011;32866;50.160;14.768;2023-09-12T09:53:28;2.28;;;2.08;;
46875;SDS011;32866;50.160;14.768;2023-09-12T10:01:23;1.60;;;1.50;;
46875;SDS011;32866;50.160;14.768;2023-09-12T10:03:56;2.80;;;2.60;;
46875;SDS011;32866;50.160;14.768;2023-09-12T10:06:24;2.00;;;1.80;;
46875;SDS011;32866;50.160;14.768;2023-09-12T10:08:53;4.63;;;2.60;;
46875;SDS011;32866;50.160;14.768;2023-09-12T10:11:24;4.70;;;2.10;;
46875;SDS011;32866;50.160;14.768;2023-09-12T10:13:54;3.45;;;2.17;;
46875;SDS011;32866;50.160;14.768;2023-09-12T10:16:29;1.55;;;1.45;;
46875;SDS011;32866;50.160;14.768;2023-09-12T10:21:37;1.67;;;1.60;;
46875;SDS011;32866;50.160;14.768;2023-09-12T10:24:16;2.25;;;2.05;;
46875;SDS011;32866;50.160;14.768;2023-09-12T10:26:45;3.50;;;2.42;;
46875;SDS011;32866;50.160;14.768;2023-09-12T10:29:14;2.53;;;2.28;;
46875;SDS011;32866;50.160;14.768;2023-09-12T10:31:43;1.70;;;1.60;;
46875;SDS011;32866;50.160;14.768;2023-09-12T10:34:11;1.52;;;1.42;;
46875;SDS011;32866;50.160;14.768;2023-09-12T10:36:40;2.75;;;2.03;;
46875;SDS011;32866;50.160;14.768;2023-09-12T10:39:07;2.38;;;1.98;;
46875;SDS011;32866;50.160;14.768;2023-09-12T10:41:38;1.35;;;1.25;;
46875;SDS011;32866;50.160;14.768;2023-09-12T10:44:09;1.50;;;1.40;;
46875;SDS011;32866;50.160;14.768;2023-09-12T10:46:37;2.05;;;1.88;;
46875;SDS011;32866;50.160;14.768;2023-09-12T10:49:08;1.70;;;1.55;;
46875;SDS011;32866;50.160;14.768;2023-09-12T10:51:42;1.70;;;1.60;;
46875;SDS011;32866;50.160;14.768;2023-09-12T10:54:13;1.92;;;1.75;;
46875;SDS011;32866;50.160;14.768;2023-09-12T10:57:03;2.33;;;2.13;;
46875;SDS011;32866;50.160;14.768;2023-09-12T10:59:30;2.58;;;2.20;;
46875;SDS011;32866;50.160;14.768;2023-09-12T11:02:26;4.60;;;1.75;;
46875;SDS011;32866;50.160;14.768;2023-09-12T11:04:55;4.03;;;1.98;;
46875;SDS011;32866;50.160;14.768;2023-09-12T11:12:42;1.42;;;1.33;;
46875;SDS011;32866;50.160;14.768;2023-09-12T11:15:09;1.60;;;1.50;;
46875;SDS011;32866;50.160;14.768;2023-09-12T11:17:39;1.55;;;1.40;;
46875;SDS011;32866;50.160;14.768;2023-09-12T11:20:09;2.33;;;1.80;;
46875;SDS011;32866;50.160;14.768;2023-09-12T11:22:37;1.40;;;1.30;;
46875;SDS011;32866;50.160;14.768;2023-09-12T11:25:25;1.48;;;1.38;;
46875;SDS011;32866;50.160;14.768;2023-09-12T11:30:22;2.00;;;1.67;;
46875;SDS011;32866;50.160;14.768;2023-09-12T11:32:50;1.65;;;1.55;;
46875;SDS011;32866;50.160;14.768;2023-09-12T11:35:17;1.40;;;1.30;;
46875;SDS011;32866;50.160;14.768;2023-09-12T11:37:52;1.63;;;1.48;;
46875;SDS011;32866;50.160;14.768;2023-09-12T11:42:58;0.88;;;0.75;;
46875;SDS011;32866;50.160;14.768;2023-09-12T11:45:25;1.20;;;1.20;;
46875;SDS011;32866;50.160;14.768;2023-09-12T11:47:53;1.88;;;1.70;;
46875;SDS011;32866;50.160;14.768;2023-09-12T11:52:59;1.67;;;1.58;;
46875;SDS011;32866;50.160;14.768;2023-09-12T11:55:42;1.48;;;1.38;;
46875;SDS011;32866;50.160;14.768;2023-09-12T11:58:10;0.93;;;0.93;;
46875;SDS011;32866;50.160;14.768;2023-09-12T12:00:50;4.70;;;1.63;;
46875;SDS011;32866;50.160;14.768;2023-09-12T12:03:20;1.50;;;1.40;;
46875;SDS011;32866;50.160;14.768;2023-09-12T12:05:48;2.60;;;1.55;;
46875;SDS011;32866;50.160;14.768;2023-09-12T12:08:15;1.45;;;1.35;;
46875;SDS011;32866;50.160;14.768;2023-09-12T12:10:42;1.52;;;1.42;;
46875;SDS011;32866;50.160;14.768;2023-09-12T12:13:12;1.40;;;1.25;;
46875;SDS011;32866;50.160;14.768;2023-09-12T12:15:42;0.93;;;0.77;;
46875;SDS011;32866;50.160;14.768;2023-09-12T12:18:08;1.38;;;1.30;;
46875;SDS011;32866;50.160;14.768;2023-09-12T12:20:34;1.83;;;1.13;;
46875;SDS011;32866;50.160;14.768;2023-09-12T12:23:00;1.25;;;1.20;;
46875;SDS011;32866;50.160;14.768;2023-09-12T12:25:26;1.15;;;1.15;;
46875;SDS011;32866;50.160;14.768;2023-09-12T12:27:52;0.82;;;0.82;;
46875;SDS011;32866;50.160;14.768;2023-09-12T12:30:18;2.15;;;1.38;;
46875;SDS011;32866;50.160;14.768;2023-09-12T12:32:45;1.17;;;1.10;;
46875;SDS011;32866;50.160;14.768;2023-09-12T12:37:49;0.98;;;0.93;;
46875;SDS011;32866;50.160;14.768;2023-09-12T12:40:16;0.80;;;0.80;;
46875;SDS011;32866;50.160;14.768;2023-09-12T12:42:43;1.02;;;1.02;;
46875;SDS011;32866;50.160;14.768;2023-09-12T12:45:18;0.93;;;0.93;;
46875;SDS011;32866;50.160;14.768;2023-09-12T12:47:46;1.52;;;1.42;;
46875;SDS011;32866;50.160;14.768;2023-09-12T12:50:12;0.70;;;0.65;;
46875;SDS011;32866;50.160;14.768;2023-09-12T12:52:39;1.30;;;1.05;;
46875;SDS011;32866;50.160;14.768;2023-09-12T12:55:09;0.60;;;0.60;;
46875;SDS011;32866;50.160;14.768;2023-09-12T12:57:41;0.75;;;0.75;;
46875;SDS011;32866;50.160;14.768;2023-09-12T13:00:11;1.40;;;1.17;;
46875;SDS011;32866;50.160;14.768;2023-09-12T13:02:40;1.17;;;1.15;;
46875;SDS011;32866;50.160;14.768;2023-09-12T13:05:26;1.23;;;0.98;;
46875;SDS011;32866;50.160;14.768;2023-09-12T13:07:56;1.25;;;1.15;;
46875;SDS011;32866;50.160;14.768;2023-09-12T13:10:22;0.68;;;0.65;;
46875;SDS011;32866;50.160;14.768;2023-09-12T13:12:50;2.15;;;1.48;;
46875;SDS011;32866;50.160;14.768;2023-09-12T13:15:16;0.93;;;0.90;;
46875;SDS011;32866;50.160;14.768;2023-09-12T13:17:43;1.17;;;1.08;;
46875;SDS011;32866;50.160;14.768;2023-09-12T13:20:09;1.13;;;1.02;;
46875;SDS011;32866;50.160;14.768;2023-09-12T13:22:36;1.05;;;1.05;;
46875;SDS011;32866;50.160;14.768;2023-09-12T13:25:03;0.95;;;0.95;;
46875;SDS011;32866;50.160;14.768;2023-09-12T13:27:30;2.17;;;1.63;;
46875;SDS011;32866;50.160;14.768;2023-09-12T13:29:56;1.27;;;1.15;;
46875;SDS011;32866;50.160;14.768;2023-09-12T13:32:22;1.33;;;1.17;;
46875;SDS011;32866;50.160;14.768;2023-09-12T13:34:48;1.10;;;1.10;;
46875;SDS011;32866;50.160;14.768;2023-09-12T13:37:16;3.47;;;1.42;;
46875;SDS011;32866;50.160;14.768;2023-09-12T13:39:42;1.33;;;1.13;;
46875;SDS011;32866;50.160;14.768;2023-09-12T13:42:17;1.63;;;1.52;;
46875;SDS011;32866;50.160;14.768;2023-09-12T13:44:47;1.58;;;1.20;;
46875;SDS011;32866;50.160;14.768;2023-09-12T13:47:13;1.58;;;1.05;;
46875;SDS011;32866;50.160;14.768;2023-09-12T13:49:39;1.27;;;1.23;;
46875;SDS011;32866;50.160;14.768;2023-09-12T13:52:05;1.70;;;1.60;;
46875;SDS011;32866;50.160;14.768;2023-09-12T13:54:31;1.75;;;1.63;;
46875;SDS011;32866;50.160;14.768;2023-09-12T13:56:57;1.45;;;1.35;;
46875;SDS011;32866;50.160;14.768;2023-09-12T13:59:23;1.60;;;1.50;;
46875;SDS011;32866;50.160;14.768;2023-09-12T14:01:49;3.17;;;1.40;;
46875;SDS011;32866;50.160;14.768;2023-09-12T14:04:15;1.10;;;1.00;;
46875;SDS011;32866;50.160;14.768;2023-09-12T14:06:42;1.70;;;1.60;;
46875;SDS011;32866;50.160;14.768;2023-09-12T14:09:08;2.33;;;1.33;;
46875;SDS011;32866;50.160;14.768;2023-09-12T14:11:35;0.95;;;0.95;;
46875;SDS011;32866;50.160;14.768;2023-09-12T14:14:02;1.67;;;1.58;;
46875;SDS011;32866;50.160;14.768;2023-09-12T14:16:28;1.30;;;1.20;;
46875;SDS011;32866;50.160;14.768;2023-09-12T14:18:54;0.88;;;0.75;;
46875;SDS011;32866;50.160;14.768;2023-09-12T14:21:20;1.42;;;1.33;;
46875;SDS011;32866;50.160;14.768;2023-09-12T14:23:46;1.13;;;1.13;;
46875;SDS011;32866;50.160;14.768;2023-09-12T14:26:12;1.88;;;1.77;;
46875;SDS011;32866;50.160;14.768;2023-09-12T14:28:38;1.25;;;1.15;;
46875;SDS011;32866;50.160;14.768;2023-09-12T14:31:04;1.83;;;1.73;;
46875;SDS011;32866;50.160;14.768;2023-09-12T14:33:38;1.30;;;1.25;;
46875;SDS011;32866;50.160;14.768;2023-09-12T14:36:05;1.25;;;1.15;;
46875;SDS011;32866;50.160;14.768;2023-09-12T14:38:33;0.85;;;0.85;;
46875;SDS011;32866;50.160;14.768;2023-09-12T14:40:59;1.83;;;1.73;;
46875;SDS011;32866;50.160;14.768;2023-09-12T14:43:25;1.77;;;1.67;;
46875;SDS011;32866;50.160;14.768;2023-09-12T14:45:54;1.95;;;1.38;;
46875;SDS011;32866;50.160;14.768;2023-09-12T14:48:20;1.73;;;0.93;;
46875;SDS011;32866;50.160;14.768;2023-09-12T14:50:46;0.95;;;0.95;;
46875;SDS011;32866;50.160;14.768;2023-09-12T14:53:15;1.00;;;1.00;;
46875;SDS011;32866;50.160;14.768;2023-09-12T14:55:41;1.55;;;1.45;;
46875;SDS011;32866;50.160;14.768;2023-09-12T14:58:17;1.33;;;1.25;;
46875;SDS011;32866;50.160;14.768;2023-09-12T15:00:42;1.55;;;1.15;;
46875;SDS011;32866;50.160;14.768;2023-09-12T15:03:08;1.75;;;1.55;;
46875;SDS011;32866;50.160;14.768;2023-09-12T15:05:34;1.40;;;1.30;;
46875;SDS011;32866;50.160;14.768;2023-09-12T15:08:00;1.08;;;1.02;;
46875;SDS011;32866;50.160;14.768;2023-09-12T15:10:27;1.90;;;1.80;;
46875;SDS011;32866;50.160;14.768;2023-09-12T15:12:53;2.08;;;1.85;;
46875;SDS011;32866;50.160;14.768;2023-09-12T15:15:19;3.35;;;1.70;;
46875;SDS011;32866;50.160;14.768;2023-09-12T15:17:45;1.65;;;1.55;;
46875;SDS011;32866;50.160;14.768;2023-09-12T15:20:11;1.60;;;1.50;;
46875;SDS011;32866;50.160;14.768;2023-09-12T15:22:37;2.22;;;1.75;;
46875;SDS011;32866;50.160;14.768;2023-09-12T15:25:03;1.10;;;0.90;;
46875;SDS011;32866;50.160;14.768;2023-09-12T15:27:29;1.55;;;1.45;;
46875;SDS011;32866;50.160;14.768;2023-09-12T15:29:55;1.80;;;1.70;;
46875;SDS011;32866;50.160;14.768;2023-09-12T15:32:21;1.50;;;1.40;;
46875;SDS011;32866;50.160;14.768;2023-09-12T15:34:47;1.67;;;1.58;;
46875;SDS011;32866;50.160;14.768;2023-09-12T15:37:13;1.33;;;1.25;;
46875;SDS011;32866;50.160;14.768;2023-09-12T15:39:40;2.08;;;1.88;;
46875;SDS011;32866;50.160;14.768;2023-09-12T15:42:06;3.22;;;1.77;;
46875;SDS011;32866;50.160;14.768;2023-09-12T15:44:32;1.42;;;1.15;;
46875;SDS011;32866;50.160;14.768;2023-09-12T15:46:58;1.17;;;1.17;;
46875;SDS011;32866;50.160;14.768;2023-09-12T15:49:24;1.50;;;1.40;;
46875;SDS011;32866;50.160;14.768;2023-09-12T15:51:51;1.48;;;1.42;;
46875;SDS011;32866;50.160;14.768;2023-09-12T15:54:17;1.05;;;1.05;;
46875;SDS011;32866;50.160;14.768;2023-09-12T15:56:43;2.28;;;1.55;;
46875;SDS011;32866;50.160;14.768;2023-09-12T15:59:09;2.03;;;1.70;;
46875;SDS011;32866;50.160;14.768;2023-09-12T16:01:35;1.77;;;1.67;;
46875;SDS011;32866;50.160;14.768;2023-09-12T16:04:01;1.45;;;1.35;;
46875;SDS011;32866;50.160;14.768;2023-09-12T16:06:29;1.00;;;1.00;;
46875;SDS011;32866;50.160;14.768;2023-09-12T16:08:55;1.92;;;1.83;;
46875;SDS011;32866;50.160;14.768;2023-09-12T16:11:21;0.82;;;0.82;;
46875;SDS011;32866;50.160;14.768;2023-09-12T16:13:47;0.90;;;0.90;;
46875;SDS011;32866;50.160;14.768;2023-09-12T16:16:15;1.45;;;1.27;;
46875;SDS011;32866;50.160;14.768;2023-09-12T16:18:41;1.67;;;1.58;;
46875;SDS011;32866;50.160;14.768;2023-09-12T16:21:10;1.70;;;1.08;;
46875;SDS011;32866;50.160;14.768;2023-09-12T16:23:36;1.13;;;1.13;;
46875;SDS011;32866;50.160;14.768;2023-09-12T16:26:02;2.88;;;2.35;;
46875;SDS011;32866;50.160;14.768;2023-09-12T16:28:29;1.77;;;1.67;;
46875;SDS011;32866;50.160;14.768;2023-09-12T16:30:55;1.88;;;1.77;;
46875;SDS011;32866;50.160;14.768;2023-09-12T16:33:21;3.30;;;1.83;;
46875;SDS011;32866;50.160;14.768;2023-09-12T16:35:48;1.08;;;1.08;;
46875;SDS011;32866;50.160;14.768;2023-09-12T16:38:15;1.70;;;1.58;;
46875;SDS011;32866;50.160;14.768;2023-09-12T16:40:41;1.42;;;1.33;;
46875;SDS011;32866;50.160;14.768;2023-09-12T16:43:07;1.73;;;1.63;;
46875;SDS011;32866;50.160;14.768;2023-09-12T16:45:33;1.85;;;1.75;;
46875;SDS011;32866;50.160;14.768;2023-09-12T16:47:59;1.83;;;1.73;;
46875;SDS011;32866;50.160;14.768;2023-09-12T16:50:26;2.35;;;1.83;;
46875;SDS011;32866;50.160;14.768;2023-09-12T16:52:52;1.50;;;1.42;;